sensor_id;sensor_type;location;lat;lon;timestamp;P1;durP1;ratioP1;P2;durP2;ratioP2
42702;SDS011;28341;52.064;4.920;2023-01-06T00:00:50;11.52;;;3.00;;
42702;SDS011;28341;52.064;4.920;2023-01-06T00:02:54;9.63;;;2.47;;
42702;SDS011;28341;52.064;4.920;2023-01-06T00:04:59;12.00;;;3.17;;
42702;SDS011;28341;52.064;4.920;2023-01-06T00:07:03;11.80;;;2.92;;
42702;SDS011;28341;52.064;4.920;2023-01-06T00:09:08;11.15;;;3.63;;
42702;SDS011;28341;52.064;4.920;2023-01-06T00:11:13;7.85;;;2.75;;
42702;SDS011;28341;52.064;4.920;2023-01-06T00:13:21;11.10;;;3.08;;
42702;SDS011;28341;52.064;4.920;2023-01-06T00:15:26;9.57;;;3.00;;
42702;SDS011;28341;52.064;4.920;2023-01-06T00:17:31;9.85;;;3.47;;
42702;SDS011;28341;52.064;4.920;2023-01-06T00:19:36;10.38;;;3.50;;
42702;SDS011;28341;52.064;4.920;2023-01-06T00:21:40;8.82;;;3.50;;
42702;SDS011;28341;52.064;4.920;2023-01-06T00:23:45;8.98;;;3.80;;
42702;SDS011;28341;52.064;4.920;2023-01-06T00:25:49;9.38;;;3.92;;
42702;SDS011;28341;52.064;4.920;2023-01-06T00:27:54;12.55;;;4.10;;
42702;SDS011;28341;52.064;4.920;2023-01-06T00:30:01;14.07;;;5.10;;
42702;SDS011;28341;52.064;4.920;2023-01-06T00:32:06;7.55;;;4.28;;
42702;SDS011;28341;52.064;4.920;2023-01-06T00:34:11;6.85;;;4.65;;
42702;SDS011;28341;52.064;4.920;2023-01-06T00:36:15;9.18;;;4.38;;
42702;SDS011;28341;52.064;4.920;2023-01-06T00:38:20;11.43;;;4.65;;
42702;SDS011;28341;52.064;4.920;2023-01-06T00:40:25;11.80;;;4.85;;
42702;SDS011;28341;52.064;4.920;2023-01-06T00:42:30;12.55;;;5.10;;
42702;SDS011;28341;52.064;4.920;2023-01-06T00:44:34;10.15;;;4.80;;
42702;SDS011;28341;52.064;4.920;2023-01-06T00:46:43;10.32;;;4.80;;
42702;SDS011;28341;52.064;4.920;2023-01-06T00:48:48;10.68;;;4.60;;
42702;SDS011;28341;52.064;4.920;2023-01-06T00:50:58;11.38;;;4.80;;
42702;SDS011;28341;52.064;4.920;2023-01-06T00:53:05;10.48;;;4.70;;
42702;SDS011;28341;52.064;4.920;2023-01-06T00:55:10;10.27;;;4.28;;
42702;SDS011;28341;52.064;4.920;2023-01-06T00:57:16;12.63;;;4.70;;
42702;SDS011;28341;52.064;4.920;2023-01-06T00:59:21;10.02;;;4.28;;
42702;SDS011;28341;52.064;4.920;2023-01-06T01:01:27;8.05;;;3.90;;
42702;SDS011;28341;52.064;4.920;2023-01-06T01:03:35;13.52;;;4.45;;
42702;SDS011;28341;52.064;4.920;2023-01-06T01:05:40;11.65;;;4.22;;
42702;SDS011;28341;52.064;4.920;2023-01-06T01:07:45;13.98;;;4.25;;
42702;SDS011;28341;52.064;4.920;2023-01-06T01:09:49;11.30;;;3.67;;
42702;SDS011;28341;52.064;4.920;2023-01-06T01:11:54;12.52;;;4.80;;
42702;SDS011;28341;52.064;4.920;2023-01-06T01:14:14;11.00;;;3.85;;
42702;SDS011;28341;52.064;4.920;2023-01-06T01:16:20;9.52;;;3.80;;
42702;SDS011;28341;52.064;4.920;2023-01-06T01:18:25;13.35;;;3.80;;
42702;SDS011;28341;52.064;4.920;2023-01-06T01:20:32;7.25;;;3.38;;
42702;SDS011;28341;52.064;4.920;2023-01-06T01:22:37;9.90;;;3.17;;
42702;SDS011;28341;52.064;4.920;2023-01-06T01:24:41;11.07;;;3.50;;
42702;SDS011;28341;52.064;4.920;2023-01-06T01:26:46;10.65;;;3.55;;
42702;SDS011;28341;52.064;4.920;2023-01-06T01:28:50;9.90;;;3.88;;
42702;SDS011;28341;52.064;4.920;2023-01-06T01:30:57;13.07;;;4.13;;
42702;SDS011;28341;52.064;4.920;2023-01-06T01:33:02;8.25;;;3.10;;
42702;SDS011;28341;52.064;4.920;2023-01-06T01:35:07;7.95;;;3.83;;
42702;SDS011;28341;52.064;4.920;2023-01-06T01:37:15;10.82;;;3.65;;
42702;SDS011;28341;52.064;4.920;2023-01-06T01:39:21;9.80;;;3.58;;
42702;SDS011;28341;52.064;4.920;2023-01-06T01:41:27;11.75;;;4.20;;
42702;SDS011;28341;52.064;4.920;2023-01-06T01:43:43;9.02;;;3.65;;
42702;SDS011;28341;52.064;4.920;2023-01-06T01:45:50;10.30;;;3.83;;
42702;SDS011;28341;52.064;4.920;2023-01-06T01:47:56;10.10;;;4.10;;
42702;SDS011;28341;52.064;4.920;2023-01-06T01:50:07;10.18;;;3.75;;
42702;SDS011;28341;52.064;4.920;2023-01-06T01:52:34;9.77;;;3.75;;
42702;SDS011;28341;52.064;4.920;2023-01-06T01:54:39;8.02;;;3.70;;
42702;SDS011;28341;52.064;4.920;2023-01-06T01:56:44;7.07;;;3.45;;
42702;SDS011;28341;52.064;4.920;2023-01-06T01:58:54;7.93;;;3.70;;
42702;SDS011;28341;52.064;4.920;2023-01-06T02:01:01;10.07;;;3.47;;
42702;SDS011;28341;52.064;4.920;2023-01-06T02:03:06;12.68;;;3.33;;
42702;SDS011;28341;52.064;4.920;2023-01-06T02:05:13;7.63;;;2.67;;
42702;SDS011;28341;52.064;4.920;2023-01-06T02:07:21;6.70;;;3.13;;
42702;SDS011;28341;52.064;4.920;2023-01-06T02:09:32;10.80;;;3.17;;
42702;SDS011;28341;52.064;4.920;2023-01-06T02:11:39;9.95;;;3.10;;
42702;SDS011;28341;52.064;4.920;2023-01-06T02:13:46;11.45;;;3.55;;
42702;SDS011;28341;52.064;4.920;2023-01-06T02:15:59;7.28;;;2.97;;
42702;SDS011;28341;52.064;4.920;2023-01-06T02:18:23;8.43;;;2.88;;
42702;SDS011;28341;52.064;4.920;2023-01-06T02:20:49;10.25;;;3.28;;
42702;SDS011;28341;52.064;4.920;2023-01-06T02:26:02;9.85;;;3.00;;
42702;SDS011;28341;52.064;4.920;2023-01-06T02:31:53;11.45;;;2.83;;
42702;SDS011;28341;52.064;4.920;2023-01-06T02:34:04;5.03;;;2.45;;
42702;SDS011;28341;52.064;4.920;2023-01-06T02:36:18;8.93;;;2.90;;
42702;SDS011;28341;52.064;4.920;2023-01-06T02:38:33;7.30;;;3.05;;
42702;SDS011;28341;52.064;4.920;2023-01-06T02:40:53;7.47;;;2.92;;
42702;SDS011;28341;52.064;4.920;2023-01-06T02:43:10;11.57;;;2.92;;
42702;SDS011;28341;52.064;4.920;2023-01-06T02:45:18;9.35;;;2.72;;
42702;SDS011;28341;52.064;4.920;2023-01-06T02:47:29;5.38;;;2.45;;
42702;SDS011;28341;52.064;4.920;2023-01-06T02:49:39;6.47;;;2.30;;
42702;SDS011;28341;52.064;4.920;2023-01-06T02:51:50;8.18;;;2.55;;
42702;SDS011;28341;52.064;4.920;2023-01-06T02:54:02;6.93;;;2.55;;
42702;SDS011;28341;52.064;4.920;2023-01-06T02:56:13;6.93;;;2.42;;
42702;SDS011;28341;52.064;4.920;2023-01-06T02:58:22;6.85;;;2.47;;
42702;SDS011;28341;52.064;4.920;2023-01-06T03:00:34;7.45;;;2.00;;
42702;SDS011;28341;52.064;4.920;2023-01-06T03:02:43;6.00;;;1.95;;
42702;SDS011;28341;52.064;4.920;2023-01-06T03:04:51;13.73;;;2.90;;
42702;SDS011;28341;52.064;4.920;2023-01-06T03:06:58;11.20;;;2.03;;
42702;SDS011;28341;52.064;4.920;2023-01-06T03:09:04;13.27;;;2.72;;
42702;SDS011;28341;52.064;4.920;2023-01-06T03:11:15;6.25;;;1.70;;
42702;SDS011;28341;52.064;4.920;2023-01-06T03:13:22;6.00;;;2.05;;
42702;SDS011;28341;52.064;4.920;2023-01-06T03:15:31;7.25;;;1.70;;
42702;SDS011;28341;52.064;4.920;2023-01-06T03:17:36;7.70;;;1.65;;
42702;SDS011;28341;52.064;4.920;2023-01-06T03:19:43;7.43;;;1.67;;
42702;SDS011;28341;52.064;4.920;2023-01-06T03:21:49;5.03;;;1.60;;
42702;SDS011;28341;52.064;4.920;2023-01-06T03:23:56;6.30;;;1.67;;
42702;SDS011;28341;52.064;4.920;2023-01-06T03:26:01;5.55;;;1.55;;
42702;SDS011;28341;52.064;4.920;2023-01-06T03:28:07;8.63;;;1.92;;
42702;SDS011;28341;52.064;4.920;2023-01-06T03:30:12;5.75;;;1.88;;
42702;SDS011;28341;52.064;4.920;2023-01-06T03:32:18;6.25;;;2.17;;
42702;SDS011;28341;52.064;4.920;2023-01-06T03:34:40;7.63;;;1.80;;
42702;SDS011;28341;52.064;4.920;2023-01-06T03:36:56;7.72;;;1.95;;
42702;SDS011;28341;52.064;4.920;2023-01-06T03:39:06;8.25;;;1.90;;
42702;SDS011;28341;52.064;4.920;2023-01-06T03:41:18;9.88;;;1.90;;
42702;SDS011;28341;52.064;4.920;2023-01-06T03:43:51;12.10;;;2.55;;
42702;SDS011;28341;52.064;4.920;2023-01-06T03:46:04;8.68;;;1.73;;
42702;SDS011;28341;52.064;4.920;2023-01-06T03:48:22;8.07;;;1.73;;
42702;SDS011;28341;52.064;4.920;2023-01-06T03:50:39;6.70;;;1.77;;
42702;SDS011;28341;52.064;4.920;2023-01-06T03:52:49;4.63;;;1.58;;
42702;SDS011;28341;52.064;4.920;2023-01-06T03:55:02;7.00;;;1.92;;
42702;SDS011;28341;52.064;4.920;2023-01-06T03:57:10;6.70;;;1.83;;
42702;SDS011;28341;52.064;4.920;2023-01-06T03:59:17;11.02;;;2.25;;
42702;SDS011;28341;52.064;4.920;2023-01-06T04:01:25;5.15;;;1.80;;
42702;SDS011;28341;52.064;4.920;2023-01-06T04:03:31;12.05;;;2.13;;
42702;SDS011;28341;52.064;4.920;2023-01-06T04:05:38;8.52;;;2.28;;
42702;SDS011;28341;52.064;4.920;2023-01-06T04:07:43;11.55;;;2.75;;
42702;SDS011;28341;52.064;4.920;2023-01-06T04:09:49;5.72;;;1.67;;
42702;SDS011;28341;52.064;4.920;2023-01-06T04:11:53;5.22;;;2.17;;
42702;SDS011;28341;52.064;4.920;2023-01-06T04:14:12;4.28;;;1.80;;
42702;SDS011;28341;52.064;4.920;2023-01-06T04:16:17;8.98;;;1.88;;
42702;SDS011;28341;52.064;4.920;2023-01-06T04:18:21;6.47;;;2.22;;
42702;SDS011;28341;52.064;4.920;2023-01-06T04:20:27;7.60;;;1.63;;
42702;SDS011;28341;52.064;4.920;2023-01-06T04:23:04;5.90;;;1.52;;
42702;SDS011;28341;52.064;4.920;2023-01-06T04:25:12;7.88;;;2.03;;
42702;SDS011;28341;52.064;4.920;2023-01-06T04:27:16;6.30;;;1.60;;
42702;SDS011;28341;52.064;4.920;2023-01-06T04:29:21;6.70;;;1.70;;
42702;SDS011;28341;52.064;4.920;2023-01-06T04:31:28;3.28;;;1.20;;
42702;SDS011;28341;52.064;4.920;2023-01-06T04:33:34;6.55;;;1.88;;
42702;SDS011;28341;52.064;4.920;2023-01-06T04:35:42;5.47;;;1.92;;
42702;SDS011;28341;52.064;4.920;2023-01-06T04:37:50;6.40;;;1.60;;
42702;SDS011;28341;52.064;4.920;2023-01-06T04:39:57;4.30;;;1.60;;
42702;SDS011;28341;52.064;4.920;2023-01-06T04:42:01;7.05;;;1.77;;
42702;SDS011;28341;52.064;4.920;2023-01-06T04:44:06;6.85;;;1.60;;
42702;SDS011;28341;52.064;4.920;2023-01-06T04:46:10;3.03;;;1.58;;
42702;SDS011;28341;52.064;4.920;2023-01-06T04:48:15;6.65;;;1.75;;
42702;SDS011;28341;52.064;4.920;2023-01-06T04:50:19;4.93;;;2.10;;
42702;SDS011;28341;52.064;4.920;2023-01-06T04:52:24;6.40;;;2.10;;
42702;SDS011;28341;52.064;4.920;2023-01-06T04:54:28;5.57;;;2.13;;
42702;SDS011;28341;52.064;4.920;2023-01-06T04:56:35;4.75;;;1.77;;
42702;SDS011;28341;52.064;4.920;2023-01-06T04:58:40;7.40;;;1.75;;
42702;SDS011;28341;52.064;4.920;2023-01-06T05:00:44;4.93;;;2.17;;
42702;SDS011;28341;52.064;4.920;2023-01-06T05:02:49;10.65;;;3.00;;
42702;SDS011;28341;52.064;4.920;2023-01-06T05:04:53;6.82;;;2.13;;
42702;SDS011;28341;52.064;4.920;2023-01-06T05:06:58;5.65;;;2.05;;
42702;SDS011;28341;52.064;4.920;2023-01-06T05:09:02;9.48;;;2.25;;
42702;SDS011;28341;52.064;4.920;2023-01-06T05:11:08;4.97;;;2.00;;
42702;SDS011;28341;52.064;4.920;2023-01-06T05:13:17;4.35;;;1.88;;
42702;SDS011;28341;52.064;4.920;2023-01-06T05:15:21;5.15;;;1.77;;
42702;SDS011;28341;52.064;4.920;2023-01-06T05:17:26;5.90;;;2.00;;
42702;SDS011;28341;52.064;4.920;2023-01-06T05:19:30;7.57;;;1.80;;
42702;SDS011;28341;52.064;4.920;2023-01-06T05:21:35;4.40;;;2.15;;
42702;SDS011;28341;52.064;4.920;2023-01-06T05:23:39;7.28;;;2.08;;
42702;SDS011;28341;52.064;4.920;2023-01-06T05:25:44;7.63;;;2.08;;
42702;SDS011;28341;52.064;4.920;2023-01-06T05:27:49;6.97;;;2.25;;
42702;SDS011;28341;52.064;4.920;2023-01-06T05:29:56;4.80;;;1.70;;
42702;SDS011;28341;52.064;4.920;2023-01-06T05:32:00;5.60;;;1.73;;
42702;SDS011;28341;52.064;4.920;2023-01-06T05:34:05;4.82;;;1.73;;
42702;SDS011;28341;52.064;4.920;2023-01-06T05:36:11;3.35;;;1.80;;
42702;SDS011;28341;52.064;4.920;2023-01-06T05:38:17;6.30;;;1.95;;
42702;SDS011;28341;52.064;4.920;2023-01-06T05:40:22;4.68;;;2.00;;
42702;SDS011;28341;52.064;4.920;2023-01-06T05:42:27;3.92;;;1.60;;
42702;SDS011;28341;52.064;4.920;2023-01-06T05:44:31;4.70;;;2.03;;
42702;SDS011;28341;52.064;4.920;2023-01-06T05:46:38;5.75;;;2.30;;
42702;SDS011;28341;52.064;4.920;2023-01-06T05:48:43;3.67;;;1.90;;
42702;SDS011;28341;52.064;4.920;2023-01-06T05:50:47;4.43;;;1.88;;
42702;SDS011;28341;52.064;4.920;2023-01-06T05:52:52;3.42;;;1.90;;
42702;SDS011;28341;52.064;4.920;2023-01-06T05:54:56;7.88;;;2.53;;
42702;SDS011;28341;52.064;4.920;2023-01-06T05:57:01;4.18;;;2.08;;
42702;SDS011;28341;52.064;4.920;2023-01-06T05:59:05;4.30;;;2.20;;
42702;SDS011;28341;52.064;4.920;2023-01-06T06:01:13;5.82;;;2.72;;
42702;SDS011;28341;52.064;4.920;2023-01-06T06:03:24;4.10;;;1.95;;
42702;SDS011;28341;52.064;4.920;2023-01-06T06:05:28;4.38;;;2.60;;
42702;SDS011;28341;52.064;4.920;2023-01-06T06:07:33;5.72;;;3.10;;
42702;SDS011;28341;52.064;4.920;2023-01-06T06:09:37;3.22;;;2.17;;
42702;SDS011;28341;52.064;4.920;2023-01-06T06:11:42;4.80;;;2.35;;
42702;SDS011;28341;52.064;4.920;2023-01-06T06:13:51;2.88;;;2.00;;
42702;SDS011;28341;52.064;4.920;2023-01-06T06:16:02;5.53;;;2.25;;
42702;SDS011;28341;52.064;4.920;2023-01-06T06:18:08;6.47;;;2.35;;
42702;SDS011;28341;52.064;4.920;2023-01-06T06:20:15;6.32;;;2.35;;
42702;SDS011;28341;52.064;4.920;2023-01-06T06:22:20;5.70;;;2.90;;
42702;SDS011;28341;52.064;4.920;2023-01-06T06:24:24;6.47;;;2.38;;
42702;SDS011;28341;52.064;4.920;2023-01-06T06:26:28;5.25;;;2.70;;
42702;SDS011;28341;52.064;4.920;2023-01-06T06:28:33;4.32;;;2.80;;
42702;SDS011;28341;52.064;4.920;2023-01-06T06:30:38;5.03;;;2.75;;
42702;SDS011;28341;52.064;4.920;2023-01-06T06:32:43;5.55;;;2.78;;
42702;SDS011;28341;52.064;4.920;2023-01-06T06:34:48;6.97;;;3.08;;
42702;SDS011;28341;52.064;4.920;2023-01-06T06:36:55;4.65;;;2.72;;
42702;SDS011;28341;52.064;4.920;2023-01-06T06:39:00;9.35;;;3.05;;
42702;SDS011;28341;52.064;4.920;2023-01-06T06:41:04;5.50;;;3.08;;
42702;SDS011;28341;52.064;4.920;2023-01-06T06:43:09;8.43;;;3.42;;
42702;SDS011;28341;52.064;4.920;2023-01-06T06:45:13;9.45;;;3.05;;
42702;SDS011;28341;52.064;4.920;2023-01-06T06:47:18;5.07;;;3.40;;
42702;SDS011;28341;52.064;4.920;2023-01-06T06:49:22;6.20;;;3.28;;
42702;SDS011;28341;52.064;4.920;2023-01-06T06:51:28;6.65;;;3.42;;
42702;SDS011;28341;52.064;4.920;2023-01-06T06:53:35;7.40;;;3.90;;
42702;SDS011;28341;52.064;4.920;2023-01-06T06:55:41;5.38;;;3.38;;
42702;SDS011;28341;52.064;4.920;2023-01-06T06:57:45;5.50;;;3.72;;
42702;SDS011;28341;52.064;4.920;2023-01-06T06:59:50;5.88;;;3.97;;
42702;SDS011;28341;52.064;4.920;2023-01-06T07:01:54;6.30;;;4.03;;
42702;SDS011;28341;52.064;4.920;2023-01-06T07:03:59;5.38;;;3.88;;
42702;SDS011;28341;52.064;4.920;2023-01-06T07:06:04;21.73;;;15.98;;
42702;SDS011;28341;52.064;4.920;2023-01-06T07:08:10;4.90;;;3.78;;
42702;SDS011;28341;52.064;4.920;2023-01-06T07:10:18;8.15;;;6.90;;
42702;SDS011;28341;52.064;4.920;2023-01-06T07:12:22;17.45;;;12.95;;
42702;SDS011;28341;52.064;4.920;2023-01-06T07:14:27;5.57;;;4.13;;
42702;SDS011;28341;52.064;4.920;2023-01-06T07:16:31;4.57;;;3.78;;
42702;SDS011;28341;52.064;4.920;2023-01-06T07:18:36;7.25;;;3.58;;
42702;SDS011;28341;52.064;4.920;2023-01-06T07:20:44;7.30;;;3.40;;
42702;SDS011;28341;52.064;4.920;2023-01-06T07:22:50;4.68;;;3.67;;
42702;SDS011;28341;52.064;4.920;2023-01-06T07:24:54;5.97;;;3.80;;
42702;SDS011;28341;52.064;4.920;2023-01-06T07:27:02;4.63;;;4.10;;
42702;SDS011;28341;52.064;4.920;2023-01-06T07:29:07;8.60;;;4.97;;
42702;SDS011;28341;52.064;4.920;2023-01-06T07:31:11;5.75;;;5.00;;
42702;SDS011;28341;52.064;4.920;2023-01-06T07:33:16;5.97;;;5.07;;
42702;SDS011;28341;52.064;4.920;2023-01-06T07:35:21;8.68;;;5.30;;
42702;SDS011;28341;52.064;4.920;2023-01-06T07:37:26;11.50;;;5.28;;
42702;SDS011;28341;52.064;4.920;2023-01-06T07:39:30;12.18;;;8.65;;
42702;SDS011;28341;52.064;4.920;2023-01-06T07:41:35;10.68;;;4.75;;
42702;SDS011;28341;52.064;4.920;2023-01-06T07:43:47;7.03;;;3.40;;
42702;SDS011;28341;52.064;4.920;2023-01-06T07:45:52;7.80;;;2.75;;
42702;SDS011;28341;52.064;4.920;2023-01-06T07:47:57;8.93;;;2.78;;
42702;SDS011;28341;52.064;4.920;2023-01-06T07:50:02;12.73;;;3.03;;
42702;SDS011;28341;52.064;4.920;2023-01-06T07:52:08;9.23;;;2.67;;
42702;SDS011;28341;52.064;4.920;2023-01-06T07:54:12;7.78;;;2.40;;
42702;SDS011;28341;52.064;4.920;2023-01-06T07:56:16;9.05;;;2.20;;
42702;SDS011;28341;52.064;4.920;2023-01-06T07:58:23;17.42;;;3.60;;
42702;SDS011;28341;52.064;4.920;2023-01-06T08:00:30;14.20;;;2.72;;
42702;SDS011;28341;52.064;4.920;2023-01-06T08:02:35;16.23;;;3.15;;
42702;SDS011;28341;52.064;4.920;2023-01-06T08:04:39;12.25;;;2.35;;
42702;SDS011;28341;52.064;4.920;2023-01-06T08:06:44;15.07;;;2.67;;
42702;SDS011;28341;52.064;4.920;2023-01-06T08:08:48;11.00;;;2.13;;
42702;SDS011;28341;52.064;4.920;2023-01-06T08:10:56;19.48;;;2.72;;
42702;SDS011;28341;52.064;4.920;2023-01-06T08:13:01;14.00;;;2.55;;
42702;SDS011;28341;52.064;4.920;2023-01-06T08:15:06;14.65;;;3.20;;
42702;SDS011;28341;52.064;4.920;2023-01-06T08:17:13;22.15;;;3.35;;
42702;SDS011;28341;52.064;4.920;2023-01-06T08:19:18;14.52;;;3.28;;
42702;SDS011;28341;52.064;4.920;2023-01-06T08:21:22;27.50;;;11.13;;
42702;SDS011;28341;52.064;4.920;2023-01-06T08:23:27;18.40;;;3.13;;
42702;SDS011;28341;52.064;4.920;2023-01-06T08:25:31;21.67;;;2.78;;
42702;SDS011;28341;52.064;4.920;2023-01-06T08:27:36;24.58;;;3.25;;
42702;SDS011;28341;52.064;4.920;2023-01-06T08:29:40;15.90;;;2.67;;
42702;SDS011;28341;52.064;4.920;2023-01-06T08:31:45;18.80;;;3.00;;
42702;SDS011;28341;52.064;4.920;2023-01-06T08:33:52;26.27;;;3.40;;
42702;SDS011;28341;52.064;4.920;2023-01-06T08:35:57;27.33;;;3.83;;
42702;SDS011;28341;52.064;4.920;2023-01-06T08:38:02;16.30;;;2.40;;
42702;SDS011;28341;52.064;4.920;2023-01-06T08:40:07;20.02;;;2.97;;
42702;SDS011;28341;52.064;4.920;2023-01-06T08:42:13;18.73;;;3.22;;
42702;SDS011;28341;52.064;4.920;2023-01-06T08:44:17;20.77;;;3.28;;
42702;SDS011;28341;52.064;4.920;2023-01-06T08:46:22;21.38;;;2.92;;
42702;SDS011;28341;52.064;4.920;2023-01-06T08:48:27;16.95;;;3.67;;
42702;SDS011;28341;52.064;4.920;2023-01-06T08:50:36;19.15;;;3.13;;
42702;SDS011;28341;52.064;4.920;2023-01-06T08:52:41;14.88;;;2.78;;
42702;SDS011;28341;52.064;4.920;2023-01-06T08:54:45;20.92;;;3.35;;
42702;SDS011;28341;52.064;4.920;2023-01-06T08:56:50;18.08;;;3.28;;
42702;SDS011;28341;52.064;4.920;2023-01-06T08:58:55;21.27;;;3.72;;
42702;SDS011;28341;52.064;4.920;2023-01-06T09:01:01;15.98;;;3.47;;
42702;SDS011;28341;52.064;4.920;2023-01-06T09:03:06;22.25;;;3.70;;
42702;SDS011;28341;52.064;4.920;2023-01-06T09:05:10;21.95;;;3.80;;
42702;SDS011;28341;52.064;4.920;2023-01-06T09:07:17;25.13;;;4.20;;
42702;SDS011;28341;52.064;4.920;2023-01-06T09:09:22;22.98;;;4.05;;
42702;SDS011;28341;52.064;4.920;2023-01-06T09:11:26;20.05;;;3.83;;
42702;SDS011;28341;52.064;4.920;2023-01-06T09:13:31;23.75;;;3.90;;
42702;SDS011;28341;52.064;4.920;2023-01-06T09:15:38;20.50;;;4.32;;
42702;SDS011;28341;52.064;4.920;2023-01-06T09:17:42;19.52;;;3.20;;
42702;SDS011;28341;52.064;4.920;2023-01-06T09:19:47;23.02;;;3.85;;
42702;SDS011;28341;52.064;4.920;2023-01-06T09:21:52;23.65;;;3.90;;
42702;SDS011;28341;52.064;4.920;2023-01-06T09:23:59;18.17;;;2.78;;
42702;SDS011;28341;52.064;4.920;2023-01-06T09:26:03;23.77;;;2.78;;
42702;SDS011;28341;52.064;4.920;2023-01-06T09:28:08;21.38;;;3.55;;
42702;SDS011;28341;52.064;4.920;2023-01-06T09:30:12;21.20;;;2.63;;
42702;SDS011;28341;52.064;4.920;2023-01-06T09:32:17;22.98;;;2.60;;
42702;SDS011;28341;52.064;4.920;2023-01-06T09:34:21;22.10;;;4.15;;
42702;SDS011;28341;52.064;4.920;2023-01-06T09:36:26;23.23;;;3.40;;
42702;SDS011;28341;52.064;4.920;2023-01-06T09:38:31;23.20;;;4.05;;
42702;SDS011;28341;52.064;4.920;2023-01-06T09:40:40;22.98;;;2.60;;
42702;SDS011;28341;52.064;4.920;2023-01-06T09:42:56;16.63;;;3.22;;
42702;SDS011;28341;52.064;4.920;2023-01-06T09:45:09;22.13;;;2.85;;
42702;SDS011;28341;52.064;4.920;2023-01-06T09:47:19;20.85;;;4.45;;
42702;SDS011;28341;52.064;4.920;2023-01-06T09:49:27;24.88;;;10.05;;
42702;SDS011;28341;52.064;4.920;2023-01-06T09:51:41;14.90;;;2.58;;
42702;SDS011;28341;52.064;4.920;2023-01-06T09:53:46;20.63;;;3.72;;
42702;SDS011;28341;52.064;4.920;2023-01-06T09:55:58;14.43;;;2.72;;
42702;SDS011;28341;52.064;4.920;2023-01-06T09:58:07;10.23;;;1.90;;
42702;SDS011;28341;52.064;4.920;2023-01-06T10:00:19;19.23;;;2.38;;
42702;SDS011;28341;52.064;4.920;2023-01-06T10:02:31;15.70;;;2.55;;
42702;SDS011;28341;52.064;4.920;2023-01-06T10:04:39;17.15;;;2.65;;
42702;SDS011;28341;52.064;4.920;2023-01-06T10:06:44;17.33;;;2.05;;
42702;SDS011;28341;52.064;4.920;2023-01-06T10:08:57;11.75;;;2.05;;
42702;SDS011;28341;52.064;4.920;2023-01-06T10:11:17;9.90;;;2.08;;
42702;SDS011;28341;52.064;4.920;2023-01-06T10:13:31;11.63;;;2.60;;
42702;SDS011;28341;52.064;4.920;2023-01-06T10:15:45;13.88;;;2.00;;
42702;SDS011;28341;52.064;4.920;2023-01-06T10:17:57;13.07;;;1.83;;
42702;SDS011;28341;52.064;4.920;2023-01-06T10:20:15;13.57;;;1.80;;
42702;SDS011;28341;52.064;4.920;2023-01-06T10:24:52;8.10;;;1.65;;
42702;SDS011;28341;52.064;4.920;2023-01-06T10:27:07;17.88;;;6.20;;
42702;SDS011;28341;52.064;4.920;2023-01-06T10:29:24;32.67;;;16.15;;
42702;SDS011;28341;52.064;4.920;2023-01-06T10:31:33;31.25;;;15.95;;
42702;SDS011;28341;52.064;4.920;2023-01-06T10:33:40;22.38;;;9.05;;
42702;SDS011;28341;52.064;4.920;2023-01-06T10:35:49;13.18;;;1.73;;
42702;SDS011;28341;52.064;4.920;2023-01-06T10:37:54;12.10;;;1.88;;
42702;SDS011;28341;52.064;4.920;2023-01-06T10:40:02;10.20;;;1.65;;
42702;SDS011;28341;52.064;4.920;2023-01-06T10:42:22;10.95;;;1.63;;
42702;SDS011;28341;52.064;4.920;2023-01-06T10:44:44;13.23;;;1.65;;
42702;SDS011;28341;52.064;4.920;2023-01-06T10:46:49;7.90;;;1.23;;
42702;SDS011;28341;52.064;4.920;2023-01-06T10:48:53;7.70;;;1.33;;
42702;SDS011;28341;52.064;4.920;2023-01-06T10:50:58;9.50;;;1.98;;
42702;SDS011;28341;52.064;4.920;2023-01-06T10:53:27;9.23;;;1.42;;
42702;SDS011;28341;52.064;4.920;2023-01-06T10:55:39;10.63;;;1.70;;
42702;SDS011;28341;52.064;4.920;2023-01-06T10:57:49;12.52;;;1.40;;
42702;SDS011;28341;52.064;4.920;2023-01-06T11:00:08;10.95;;;1.70;;
42702;SDS011;28341;52.064;4.920;2023-01-06T11:02:21;14.43;;;2.20;;
42702;SDS011;28341;52.064;4.920;2023-01-06T11:04:26;16.92;;;1.73;;
42702;SDS011;28341;52.064;4.920;2023-01-06T11:06:31;9.13;;;2.03;;
42702;SDS011;28341;52.064;4.920;2023-01-06T11:08:35;11.80;;;2.85;;
42702;SDS011;28341;52.064;4.920;2023-01-06T11:10:41;34.80;;;22.05;;
42702;SDS011;28341;52.064;4.920;2023-01-06T11:12:50;8.90;;;2.05;;
42702;SDS011;28341;52.064;4.920;2023-01-06T11:14:55;9.93;;;1.75;;
42702;SDS011;28341;52.064;4.920;2023-01-06T11:17:02;11.13;;;1.88;;
42702;SDS011;28341;52.064;4.920;2023-01-06T11:19:18;8.65;;;1.35;;
42702;SDS011;28341;52.064;4.920;2023-01-06T11:21:37;10.57;;;1.70;;
42702;SDS011;28341;52.064;4.920;2023-01-06T11:23:44;8.00;;;1.50;;
42702;SDS011;28341;52.064;4.920;2023-01-06T11:28:20;10.23;;;1.70;;
42702;SDS011;28341;52.064;4.920;2023-01-06T11:30:25;9.50;;;1.73;;
42702;SDS011;28341;52.064;4.920;2023-01-06T11:32:31;11.80;;;1.98;;
42702;SDS011;28341;52.064;4.920;2023-01-06T11:34:35;9.05;;;1.80;;
42702;SDS011;28341;52.064;4.920;2023-01-06T11:36:41;6.15;;;1.35;;
42702;SDS011;28341;52.064;4.920;2023-01-06T11:38:48;8.75;;;1.35;;
42702;SDS011;28341;52.064;4.920;2023-01-06T11:40:55;10.85;;;1.70;;
42702;SDS011;28341;52.064;4.920;2023-01-06T11:43:00;19.25;;;11.15;;
42702;SDS011;28341;52.064;4.920;2023-01-06T11:47:37;11.02;;;2.00;;
42702;SDS011;28341;52.064;4.920;2023-01-06T11:49:44;12.13;;;1.73;;
42702;SDS011;28341;52.064;4.920;2023-01-06T11:51:50;15.85;;;1.70;;
42702;SDS011;28341;52.064;4.920;2023-01-06T11:54:15;11.00;;;2.50;;
42702;SDS011;28341;52.064;4.920;2023-01-06T11:56:27;13.77;;;2.38;;
42702;SDS011;28341;52.064;4.920;2023-01-06T11:58:38;11.45;;;1.75;;
42702;SDS011;28341;52.064;4.920;2023-01-06T12:00:53;9.68;;;1.75;;
42702;SDS011;28341;52.064;4.920;2023-01-06T12:03:06;15.75;;;2.45;;
42702;SDS011;28341;52.064;4.920;2023-01-06T12:05:20;9.82;;;1.60;;
42702;SDS011;28341;52.064;4.920;2023-01-06T12:07:36;7.13;;;1.60;;
42702;SDS011;28341;52.064;4.920;2023-01-06T12:09:44;6.75;;;1.40;;
42702;SDS011;28341;52.064;4.920;2023-01-06T12:11:50;10.48;;;1.88;;
42702;SDS011;28341;52.064;4.920;2023-01-06T12:13:56;9.65;;;1.30;;
42702;SDS011;28341;52.064;4.920;2023-01-06T12:16:04;8.23;;;1.58;;
42702;SDS011;28341;52.064;4.920;2023-01-06T12:18:15;12.57;;;2.53;;
42702;SDS011;28341;52.064;4.920;2023-01-06T12:20:25;9.70;;;1.48;;
42702;SDS011;28341;52.064;4.920;2023-01-06T12:22:33;8.18;;;1.38;;
42702;SDS011;28341;52.064;4.920;2023-01-06T12:24:43;7.22;;;1.50;;
42702;SDS011;28341;52.064;4.920;2023-01-06T12:26:49;9.65;;;1.65;;
42702;SDS011;28341;52.064;4.920;2023-01-06T12:28:54;7.57;;;1.90;;
42702;SDS011;28341;52.064;4.920;2023-01-06T12:31:04;9.52;;;1.65;;
42702;SDS011;28341;52.064;4.920;2023-01-06T12:33:15;11.55;;;1.40;;
42702;SDS011;28341;52.064;4.920;2023-01-06T12:35:24;9.77;;;1.80;;
42702;SDS011;28341;52.064;4.920;2023-01-06T12:37:31;8.55;;;1.77;;
42702;SDS011;28341;52.064;4.920;2023-01-06T12:39:40;9.23;;;1.52;;
42702;SDS011;28341;52.064;4.920;2023-01-06T12:41:53;7.75;;;1.27;;
42702;SDS011;28341;52.064;4.920;2023-01-06T12:44:02;12.80;;;2.10;;
42702;SDS011;28341;52.064;4.920;2023-01-06T12:46:20;10.50;;;1.45;;
42702;SDS011;28341;52.064;4.920;2023-01-06T12:48:30;9.65;;;1.35;;
42702;SDS011;28341;52.064;4.920;2023-01-06T12:50:41;23.42;;;11.82;;
42702;SDS011;28341;52.064;4.920;2023-01-06T12:52:49;8.07;;;2.08;;
42702;SDS011;28341;52.064;4.920;2023-01-06T12:54:56;8.18;;;1.65;;
42702;SDS011;28341;52.064;4.920;2023-01-06T12:57:11;9.57;;;1.83;;